createdAt,value
2022-11-28T00:01:41.541Z,101276.34
2022-11-28T00:04:08.582Z,101295.84
2022-11-28T00:06:41.730Z,101293.00
2022-11-28T00:09:08.896Z,101288.53
2022-11-28T00:11:35.784Z,101288.03
2022-11-28T00:14:02.698Z,101290.84
2022-11-28T00:16:29.779Z,101296.97
2022-11-28T00:18:56.644Z,101288.88
2022-11-28T00:21:23.923Z,101287.69
2022-11-28T00:23:50.826Z,101283.47
2022-11-28T00:26:26.813Z,101299.63
2022-11-28T00:28:54.953Z,101291.25
2022-11-28T00:31:25.173Z,101294.00
2022-11-28T00:33:52.059Z,101295.13
2022-11-28T00:36:19.808Z,101299.88
2022-11-28T00:38:47.014Z,101299.09
2022-11-28T00:41:16.433Z,101301.63
2022-11-28T00:43:44.760Z,101311.69
2022-11-28T00:46:12.925Z,101297.06
2022-11-28T00:48:40.378Z,101298.28
2022-11-28T00:51:08.228Z,101299.09
2022-11-28T00:53:35.728Z,101304.41
2022-11-28T00:56:06.090Z,101298.28
2022-11-28T00:58:34.634Z,101293.19
2022-11-28T01:01:23.946Z,101304.03
2022-11-28T01:03:52.618Z,101296.84
2022-11-28T01:06:22.322Z,101296.56
2022-11-28T01:08:51.535Z,101296.00
2022-11-28T01:11:19.142Z,101289.31
2022-11-28T01:13:45.967Z,101293.41
2022-11-28T01:16:13.078Z,101284.63
2022-11-28T01:18:39.927Z,101293.97
2022-11-28T01:21:08.031Z,101290.13
2022-11-28T01:23:35.400Z,101280.09
2022-11-28T01:26:02.517Z,101281.53
2022-11-28T01:28:29.715Z,101290.25
2022-11-28T01:30:56.702Z,101295.00
2022-11-28T01:33:23.538Z,101288.59
2022-11-28T01:35:58.547Z,101293.25
2022-11-28T01:38:26.006Z,101296.03
2022-11-28T01:40:53.739Z,101294.59
2022-11-28T01:43:20.741Z,101293.19
2022-11-28T01:45:47.586Z,101297.91
2022-11-28T01:48:18.322Z,101320.59
2022-11-28T01:50:48.080Z,101319.28
2022-11-28T01:53:15.110Z,101308.38
2022-11-28T01:55:55.971Z,101293.25
2022-11-28T01:58:23.400Z,101293.34
2022-11-28T02:00:50.247Z,101293.56
2022-11-28T02:03:31.068Z,101289.34
2022-11-28T02:05:58.360Z,101286.16
2022-11-28T02:08:25.630Z,101291.63
2022-11-28T02:11:07.645Z,101280.41
2022-11-28T02:13:40.381Z,101276.50
2022-11-28T02:16:11.625Z,101267.81
2022-11-28T02:19:16.623Z,101280.00
2022-11-28T02:22:01.257Z,101294.38
2022-11-28T02:24:33.602Z,101296.88
2022-11-28T02:27:19.926Z,101293.44
2022-11-28T02:29:58.684Z,101291.63
2022-11-28T02:32:37.049Z,101289.16
2022-11-28T02:35:15.542Z,101295.53
2022-11-28T02:37:50.963Z,101287.94
2022-11-28T02:40:36.852Z,101280.84
2022-11-28T02:43:41.904Z,101280.72
2022-11-28T02:46:28.325Z,101292.47
2022-11-28T02:49:13.405Z,101284.19
2022-11-28T02:51:52.184Z,101286.66
2022-11-28T02:54:22.047Z,101291.31
2022-11-28T02:56:50.525Z,101306.94
2022-11-28T02:59:43.270Z,101303.16
2022-11-28T03:02:24.131Z,101300.94
2022-11-28T03:05:07.857Z,101312.75
2022-11-28T03:07:46.555Z,101306.69
2022-11-28T03:10:35.939Z,101306.16
2022-11-28T03:13:13.315Z,101310.28
2022-11-28T03:16:25.680Z,101315.63
2022-11-28T03:18:58.040Z,101330.78
2022-11-28T03:21:52.614Z,101319.84
2022-11-28T03:24:25.920Z,101311.38
2022-11-28T03:26:57.774Z,101314.97
2022-11-28T03:29:39.703Z,101313.69
2022-11-28T03:32:12.130Z,101319.00
2022-11-28T03:34:44.781Z,101308.97
2022-11-28T03:37:18.292Z,101310.63
2022-11-28T03:39:51.717Z,101303.00
2022-11-28T03:42:24.872Z,101308.75
2022-11-28T03:45:23.474Z,101298.59
2022-11-28T03:47:58.332Z,101303.34
2022-11-28T03:50:36.538Z,101302.81
2022-11-28T03:53:08.763Z,101298.41
2022-11-28T03:55:41.687Z,101314.63
2022-11-28T03:58:31.741Z,101303.13
2022-11-28T04:01:29.593Z,101308.59
2022-11-28T04:04:16.407Z,101305.25
2022-11-28T04:07:03.658Z,101286.41
2022-11-28T04:09:39.882Z,101314.97
2022-11-28T04:12:35.373Z,101311.91
2022-11-28T04:15:10.237Z,101319.25
2022-11-28T04:17:47.599Z,101290.72
2022-11-28T04:20:39.464Z,101302.47
2022-11-28T04:23:18.515Z,101307.34
2022-11-28T04:25:52.889Z,101307.75
2022-11-28T04:28:25.031Z,101306.97
2022-11-28T04:30:53.844Z,101307.28
2022-11-28T04:33:24.212Z,101307.41
2022-11-28T04:35:53.269Z,101310.81
2022-11-28T04:38:24.183Z,101308.78
2022-11-28T04:41:06.981Z,101323.09
2022-11-28T04:43:42.338Z,101311.75
2022-11-28T04:46:21.882Z,101323.84
2022-11-28T04:48:48.729Z,101310.31
2022-11-28T04:51:21.292Z,101319.97
2022-11-28T04:54:00.152Z,101326.41
2022-11-28T04:56:57.652Z,101324.19
2022-11-28T04:59:27.213Z,101334.09
2022-11-28T05:01:56.209Z,101333.13
2022-11-28T05:04:22.941Z,101324.50
2022-11-28T05:06:49.842Z,101339.75
2022-11-28T05:09:16.818Z,101325.63
2022-11-28T05:11:43.543Z,101342.09
2022-11-28T05:14:10.311Z,101341.97
2022-11-28T05:16:37.029Z,101344.88
2022-11-28T05:19:03.863Z,101336.25
2022-11-28T05:21:30.658Z,101328.28
2022-11-28T05:23:57.449Z,101326.69
2022-11-28T05:26:24.247Z,101335.75
2022-11-28T05:28:53.316Z,101320.00
2022-11-28T05:31:21.526Z,101333.16
2022-11-28T05:33:48.342Z,101336.56
2022-11-28T05:36:15.974Z,101349.88
2022-11-28T05:38:43.873Z,101351.81
2022-11-28T05:41:18.083Z,101351.69
2022-11-28T05:43:44.752Z,101341.16
2022-11-28T05:46:11.555Z,101349.16
2022-11-28T05:48:38.476Z,101359.09
2022-11-28T05:51:05.751Z,101347.75
2022-11-28T05:53:32.741Z,101346.44
2022-11-28T05:55:59.948Z,101354.81
2022-11-28T05:58:26.652Z,101352.84
2022-11-28T06:00:55.796Z,101366.41
2022-11-28T06:03:22.856Z,101367.25
2022-11-28T06:05:49.656Z,101352.97
2022-11-28T06:08:16.743Z,101376.53
2022-11-28T06:10:43.589Z,101374.38
2022-11-28T06:13:10.298Z,101379.94
2022-11-28T06:15:38.548Z,101380.91
2022-11-28T06:18:06.505Z,101370.16
2022-11-28T06:20:35.872Z,101382.72
2022-11-28T06:23:02.571Z,101388.66
2022-11-28T06:25:29.811Z,101391.78
2022-11-28T06:27:56.584Z,101394.00
2022-11-28T06:30:23.286Z,101393.28
2022-11-28T06:32:50.033Z,101396.06
2022-11-28T06:35:17.020Z,101399.44
2022-11-28T06:37:43.757Z,101401.00
2022-11-28T06:40:10.727Z,101395.44
2022-11-28T06:42:37.573Z,101390.56
2022-11-28T06:45:05.836Z,101403.88
2022-11-28T06:47:32.811Z,101389.59
2022-11-28T06:49:59.504Z,101407.38
2022-11-28T06:52:26.615Z,101401.44
2022-11-28T06:54:53.424Z,101403.53
2022-11-28T06:57:20.164Z,101403.53
2022-11-28T06:59:48.791Z,101406.44
2022-11-28T07:02:15.674Z,101400.75
2022-11-28T07:04:42.391Z,101403.75
2022-11-28T07:07:12.518Z,101407.19
2022-11-28T07:09:42.002Z,101412.38
2022-11-28T07:12:09.088Z,101405.22
2022-11-28T07:14:36.861Z,101403.06
2022-11-28T07:17:03.729Z,101429.91
2022-11-28T07:19:30.504Z,101424.44
2022-11-28T07:21:57.333Z,101430.50
2022-11-28T07:24:24.207Z,101433.41
2022-11-28T07:26:50.915Z,101432.78
2022-11-28T07:29:18.864Z,101439.22
2022-11-28T07:31:45.802Z,101425.00
2022-11-28T07:34:13.122Z,101431.25
2022-11-28T07:36:40.004Z,101439.09
2022-11-28T07:39:09.054Z,101432.94
2022-11-28T07:41:36.079Z,101433.91
2022-11-28T07:44:04.489Z,101426.78
2022-11-28T07:46:32.334Z,101431.31
2022-11-28T07:48:59.297Z,101427.56
2022-11-28T07:51:28.830Z,101422.72
2022-11-28T07:53:58.772Z,101430.13
2022-11-28T07:56:39.489Z,101433.41
2022-11-28T07:59:11.525Z,101413.31
2022-11-28T08:01:38.611Z,101426.09
2022-11-28T08:04:07.464Z,101415.81
2022-11-28T08:06:38.281Z,101419.09
2022-11-28T08:09:07.104Z,101416.94
2022-11-28T08:11:34.601Z,101425.38
2022-11-28T08:14:01.966Z,101412.91
2022-11-28T08:16:30.409Z,101429.28
2022-11-28T08:18:59.760Z,101434.31
2022-11-28T08:21:29.903Z,101437.75
2022-11-28T08:23:59.633Z,101442.53
2022-11-28T08:26:30.379Z,101445.09
2022-11-28T08:28:58.675Z,101428.38
2022-11-28T08:31:28.919Z,101450.19
2022-11-28T08:33:56.796Z,101452.19
2022-11-28T08:36:23.880Z,101458.22
2022-11-28T08:39:09.483Z,101464.38
2022-11-28T08:41:37.933Z,101438.69
2022-11-28T08:44:04.826Z,101455.91
2022-11-28T08:46:31.571Z,101461.44
2022-11-28T08:49:04.186Z,101473.66
2022-11-28T08:51:31.722Z,101474.31
2022-11-28T08:53:59.810Z,101471.78
2022-11-28T08:56:27.477Z,101479.53
2022-11-28T08:58:55.082Z,101479.53
2022-11-28T09:01:24.996Z,101478.19
2022-11-28T09:03:53.177Z,101485.69
2022-11-28T09:06:21.200Z,101488.91
2022-11-28T09:08:49.224Z,101492.41
2022-11-28T09:11:18.159Z,101495.19
2022-11-28T09:13:45.724Z,101488.63
2022-11-28T09:16:13.085Z,101496.69
2022-11-28T09:18:39.959Z,101499.34
2022-11-28T09:21:13.120Z,101501.16
2022-11-28T09:23:41.473Z,101508.06
2022-11-28T09:26:15.301Z,101503.63
2022-11-28T09:28:42.511Z,101482.34
2022-11-28T09:31:10.127Z,101484.03
2022-11-28T09:33:37.220Z,101511.59
2022-11-28T09:36:09.538Z,101493.72
2022-11-28T09:38:37.225Z,101511.16
2022-11-28T09:41:23.468Z,101500.53
2022-11-28T09:43:54.704Z,101512.56
2022-11-28T09:46:31.495Z,101518.06
2022-11-28T09:49:02.308Z,101507.22
2022-11-28T09:51:33.489Z,101527.59
2022-11-28T09:54:27.795Z,101516.88
2022-11-28T09:56:56.917Z,101522.53
2022-11-28T09:59:27.583Z,101520.91
2022-11-28T10:02:10.369Z,101511.38
2022-11-28T10:05:12.509Z,101517.47
2022-11-28T10:07:49.032Z,101517.13
2022-11-28T10:10:21.678Z,101528.88
2022-11-28T10:13:13.989Z,101527.22
2022-11-28T10:15:59.538Z,101518.72
2022-11-28T10:18:42.556Z,101515.75
2022-11-28T10:21:28.205Z,101518.53
2022-11-28T10:24:00.261Z,101520.59
2022-11-28T10:26:36.001Z,101531.06
2022-11-28T10:29:41.604Z,101538.78
2022-11-28T10:32:18.095Z,101543.81
2022-11-28T10:35:00.810Z,101546.38
2022-11-28T10:37:31.392Z,101539.44
2022-11-28T10:40:50.509Z,101532.75
2022-11-28T10:43:59.613Z,101552.44
2022-11-28T10:47:00.640Z,101540.63
2022-11-28T10:49:33.843Z,101556.88
2022-11-28T10:52:17.514Z,101551.50
2022-11-28T10:54:59.420Z,101563.56
2022-11-28T10:57:42.905Z,101558.50
2022-11-28T11:00:13.759Z,101566.63
2022-11-28T11:02:46.359Z,101579.78
2022-11-28T11:05:19.815Z,101584.28
2022-11-28T11:07:55.498Z,101579.25
2022-11-28T11:10:49.751Z,101578.72
2022-11-28T11:13:20.879Z,101574.81
2022-11-28T11:15:54.750Z,101568.94
2022-11-28T11:18:34.735Z,101569.53
2022-11-28T11:21:18.067Z,101569.00
2022-11-28T11:23:46.101Z,101561.69
2022-11-28T11:26:26.325Z,101551.28
2022-11-28T11:28:53.517Z,101537.50
2022-11-28T11:31:31.073Z,101533.31
2022-11-28T11:34:14.665Z,101517.59
2022-11-28T11:36:43.036Z,101520.66
2022-11-28T11:39:12.809Z,101500.16
2022-11-28T11:41:48.275Z,101506.59
2022-11-28T11:44:14.959Z,101514.56
2022-11-28T11:47:09.178Z,101494.59
2022-11-28T11:49:37.475Z,101499.53
2022-11-28T11:52:14.203Z,101485.09
2022-11-28T11:55:11.684Z,101484.94
2022-11-28T11:57:43.740Z,101475.72
2022-11-28T12:00:15.256Z,101486.91
2022-11-28T12:02:52.384Z,101473.78
2022-11-28T12:05:23.332Z,101471.72
2022-11-28T12:08:31.873Z,101473.44
2022-11-28T12:11:19.643Z,101470.94
2022-11-28T12:13:46.954Z,101476.56
2022-11-28T12:16:48.680Z,101470.94
2022-11-28T12:19:40.185Z,101464.38
2022-11-28T12:22:22.053Z,101462.53
2022-11-28T12:25:28.171Z,101452.63
2022-11-28T12:27:57.539Z,101464.06
2022-11-28T12:30:30.146Z,101460.94
2022-11-28T12:33:32.343Z,101452.72
2022-11-28T12:36:08.386Z,101449.00
2022-11-28T12:38:38.247Z,101453.94
2022-11-28T12:41:04.971Z,101451.09
2022-11-28T12:43:37.422Z,101459.44
2022-11-28T12:46:20.364Z,101448.28
2022-11-28T12:49:02.039Z,101435.94
2022-11-28T12:51:56.653Z,101453.66
2022-11-28T12:54:32.524Z,101443.38
2022-11-28T12:57:14.638Z,101447.00
2022-11-28T13:00:36.956Z,101435.97
2022-11-28T13:03:41.768Z,101437.41
2022-11-28T13:06:08.494Z,101445.25
2022-11-28T13:09:06.770Z,101435.84
2022-11-28T13:11:40.152Z,101429.75
2022-11-28T13:14:15.645Z,101432.31
2022-11-28T13:16:42.566Z,101436.16
2022-11-28T13:19:30.590Z,101429.25
2022-11-28T13:22:06.467Z,101436.81
2022-11-28T13:24:42.454Z,101438.03
2022-11-28T13:27:32.481Z,101428.44
2022-11-28T13:30:24.003Z,101422.28
2022-11-28T13:33:14.466Z,101420.19
2022-11-28T13:35:45.532Z,101417.16
2022-11-28T13:38:44.126Z,101404.34
2022-11-28T13:41:43.885Z,101416.78
2022-11-28T13:44:20.886Z,101415.19
2022-11-28T13:46:47.921Z,101425.88
2022-11-28T13:49:26.697Z,101415.13
2022-11-28T13:52:17.921Z,101409.97
2022-11-28T13:54:45.910Z,101409.44
2022-11-28T13:57:28.203Z,101419.56
2022-11-28T14:00:22.663Z,101401.44
2022-11-28T14:02:59.121Z,101405.91
2022-11-28T14:05:38.417Z,101404.72
2022-11-28T14:08:07.382Z,101407.63
2022-11-28T14:10:57.960Z,101410.84
2022-11-28T14:13:33.754Z,101410.53
2022-11-28T14:16:20.906Z,101417.31
2022-11-28T14:19:11.809Z,101405.63
2022-11-28T14:21:41.546Z,101395.97
2022-11-28T14:24:17.576Z,101373.22
2022-11-28T14:26:44.917Z,101394.47
2022-11-28T14:29:25.213Z,101391.94
2022-11-28T14:32:14.148Z,101391.66
2022-11-28T14:34:48.822Z,101394.97
2022-11-28T14:37:21.862Z,101400.50
2022-11-28T14:39:50.261Z,101392.97
2022-11-28T14:42:44.149Z,101407.03
2022-11-28T14:45:40.334Z,101402.13
2022-11-28T14:48:17.363Z,101380.16
2022-11-28T14:50:48.363Z,101390.53
2022-11-28T14:53:34.180Z,101398.56
2022-11-28T14:56:16.124Z,101392.19
2022-11-28T14:58:50.437Z,101386.16
2022-11-28T15:02:04.630Z,101395.75
2022-11-28T15:04:41.658Z,101410.44
2022-11-28T15:07:28.835Z,101399.00
2022-11-28T15:10:10.196Z,101406.91
2022-11-28T15:13:03.441Z,101397.91
2022-11-28T15:15:32.161Z,101400.22
2022-11-28T15:18:02.097Z,101386.16
2022-11-28T15:20:44.232Z,101390.38
2022-11-28T15:23:30.569Z,101383.91
2022-11-28T15:25:58.906Z,101374.03
2022-11-28T15:28:28.730Z,101382.16
2022-11-28T15:30:58.066Z,101377.63
2022-11-28T15:33:26.934Z,101374.31
2022-11-28T15:36:02.522Z,101376.34
2022-11-28T15:38:31.704Z,101368.84
2022-11-28T15:40:59.632Z,101375.63
2022-11-28T15:43:26.774Z,101359.94
2022-11-28T15:46:00.343Z,101372.03
2022-11-28T15:48:39.792Z,101377.75
2022-11-28T15:51:07.630Z,101381.50
2022-11-28T15:53:40.894Z,101384.31
2022-11-28T15:56:12.828Z,101382.94
2022-11-28T15:58:41.271Z,101386.03
2022-11-28T16:01:10.965Z,101392.25
2022-11-28T16:04:06.153Z,101378.56
2022-11-28T16:06:36.371Z,101389.53
2022-11-28T16:09:05.914Z,101385.63
2022-11-28T16:11:36.237Z,101396.31
2022-11-28T16:14:09.803Z,101390.94
2022-11-28T16:16:38.457Z,101390.69
2022-11-28T16:19:09.074Z,101359.53
2022-11-28T16:21:44.136Z,101391.25
2022-11-28T16:24:46.901Z,101380.28
2022-11-28T16:27:32.790Z,101378.88
2022-11-28T16:30:00.886Z,101371.03
2022-11-28T16:32:40.884Z,101371.31
2022-11-28T16:35:12.593Z,101362.34
2022-11-28T16:37:39.720Z,101376.09
2022-11-28T16:40:06.876Z,101377.78
2022-11-28T16:42:35.211Z,101383.38
2022-11-28T16:45:32.872Z,101383.66
2022-11-28T16:48:15.203Z,101385.63
2022-11-28T16:51:01.893Z,101388.16
2022-11-28T16:53:55.687Z,101380.28
2022-11-28T16:56:31.615Z,101383.34
2022-11-28T16:59:07.468Z,101382.81
2022-11-28T17:01:35.435Z,101386.75
2022-11-28T17:04:02.750Z,101382.75
2022-11-28T17:06:39.355Z,101391.19
2022-11-28T17:09:11.832Z,101396.22
2022-11-28T17:11:43.988Z,101384.94
2022-11-28T17:14:14.354Z,101393.38
2022-11-28T17:16:44.209Z,101396.16
2022-11-28T17:19:11.091Z,101401.19
2022-11-28T17:21:54.480Z,101406.25
2022-11-28T17:24:26.938Z,101389.94
2022-11-28T17:26:55.112Z,101406.75
2022-11-28T17:29:22.691Z,101389.66
2022-11-28T17:31:50.399Z,101398.91
2022-11-28T17:34:23.316Z,101390.19
2022-11-28T17:36:50.803Z,101385.16
2022-11-28T17:39:19.146Z,101391.03
2022-11-28T17:41:47.245Z,101384.84
2022-11-28T17:44:23.766Z,101384.00
2022-11-28T17:46:52.230Z,101387.66
2022-11-28T17:49:19.499Z,101388.19
2022-11-28T17:51:46.263Z,101385.97
2022-11-28T17:54:16.848Z,101382.59
2022-11-28T17:56:51.703Z,101378.66
2022-11-28T17:59:20.683Z,101380.06
2022-11-28T18:01:47.857Z,101379.75
2022-11-28T18:04:14.770Z,101390.44
2022-11-28T18:06:46.312Z,101382.31
2022-11-28T18:09:14.072Z,101382.59
2022-11-28T18:11:42.556Z,101378.97
2022-11-28T18:14:09.873Z,101391.59
2022-11-28T18:16:36.937Z,101386.28
2022-11-28T18:19:04.731Z,101383.22
2022-11-28T18:21:32.395Z,101385.72
2022-11-28T18:23:59.159Z,101387.16
2022-11-28T18:26:26.883Z,101388.28
2022-11-28T18:28:54.207Z,101388.84
2022-11-28T18:31:24.795Z,101391.94
2022-11-28T18:33:51.668Z,101390.50
2022-11-28T18:36:21.859Z,101397.25
2022-11-28T18:38:48.810Z,101393.16
2022-11-28T18:41:17.695Z,101389.31
2022-11-28T18:43:45.094Z,101387.66
2022-11-28T18:46:17.724Z,101391.56
2022-11-28T18:48:46.668Z,101391.84
2022-11-28T18:51:22.344Z,101385.06
2022-11-28T18:53:51.287Z,101379.72
2022-11-28T18:56:18.564Z,101379.97
2022-11-28T18:58:48.722Z,101391.50
2022-11-28T19:01:16.564Z,101389.53
2022-11-28T19:03:47.877Z,101396.41
2022-11-28T19:06:14.793Z,101398.13
2022-11-28T19:08:41.663Z,101396.72
2022-11-28T19:11:13.308Z,101393.34
2022-11-28T19:13:45.481Z,101393.31
2022-11-28T19:16:14.104Z,101394.72
2022-11-28T19:18:41.569Z,101395.50
2022-11-28T19:21:11.340Z,101390.13
2022-11-28T19:23:38.735Z,101400.50
2022-11-28T19:26:08.432Z,101405.53
2022-11-28T19:28:38.111Z,101404.66
2022-11-28T19:31:11.251Z,101402.69
2022-11-28T19:33:38.795Z,101399.28
2022-11-28T19:36:07.505Z,101404.28
2022-11-28T19:38:35.751Z,101396.66
2022-11-28T19:41:07.323Z,101394.94
2022-11-28T19:43:35.387Z,101397.97
2022-11-28T19:46:02.572Z,101401.09
2022-11-28T19:48:31.323Z,101392.44
2022-11-28T19:50:58.372Z,101406.75
2022-11-28T19:53:26.222Z,101397.31
2022-11-28T19:55:54.330Z,101397.50
2022-11-28T19:58:21.576Z,101402.56
2022-11-28T20:00:48.495Z,101404.19
2022-11-28T20:03:16.426Z,101396.59
2022-11-28T20:05:43.417Z,101411.97
2022-11-28T20:08:10.205Z,101408.84
2022-11-28T20:10:40.170Z,101404.91
2022-11-28T20:13:06.913Z,101409.38
2022-11-28T20:15:37.873Z,101409.91
2022-11-28T20:18:04.866Z,101417.69
2022-11-28T20:20:34.053Z,101389.06
2022-11-28T20:23:01.801Z,101405.88
2022-11-28T20:25:28.927Z,101396.88
2022-11-28T20:27:55.667Z,101404.72
2022-11-28T20:30:22.413Z,101399.03
2022-11-28T20:32:49.186Z,101409.69
2022-11-28T20:35:16.158Z,101412.16
2022-11-28T20:37:42.929Z,101423.88
2022-11-28T20:40:10.256Z,101412.91
2022-11-28T20:42:40.027Z,101411.16
2022-11-28T20:45:07.553Z,101415.09
2022-11-28T20:47:35.160Z,101396.66
2022-11-28T20:50:02.455Z,101405.38
2022-11-28T20:52:29.167Z,101402.56
2022-11-28T20:54:56.123Z,101410.72
2022-11-28T20:57:22.856Z,101419.16
2022-11-28T20:59:49.652Z,101399.78
2022-11-28T21:02:16.511Z,101409.94
2022-11-28T21:04:44.403Z,101404.84
2022-11-28T21:07:11.103Z,101426.47
2022-11-28T21:09:38.156Z,101429.19
2022-11-28T21:12:04.955Z,101427.44
2022-11-28T21:14:31.659Z,101440.88
2022-11-28T21:16:59.280Z,101434.78
2022-11-28T21:19:27.115Z,101434.28
2022-11-28T21:21:54.429Z,101435.78
2022-11-28T21:24:21.284Z,101437.25
2022-11-28T21:26:53.559Z,101434.72
2022-11-28T21:29:22.245Z,101432.72
2022-11-28T21:31:49.096Z,101448.97
2022-11-28T21:34:16.980Z,101443.13
2022-11-28T21:36:44.481Z,101446.75
2022-11-28T21:39:17.215Z,101439.41
2022-11-28T21:41:43.951Z,101446.06
2022-11-28T21:44:10.978Z,101430.63
2022-11-28T21:46:37.804Z,101440.97
2022-11-28T21:49:04.522Z,101421.53
2022-11-28T21:51:31.443Z,101425.97
2022-11-28T21:53:58.262Z,101432.41
2022-11-28T21:56:25.917Z,101438.50
2022-11-28T21:58:52.846Z,101425.84
2022-11-28T22:01:21.418Z,101432.28
2022-11-28T22:03:48.369Z,101435.03
2022-11-28T22:06:24.263Z,101434.41
2022-11-28T22:08:51.714Z,101424.81
2022-11-28T22:11:22.248Z,101422.56
2022-11-28T22:13:49.716Z,101422.25
2022-11-28T22:16:23.485Z,101428.28
2022-11-28T22:18:55.380Z,101420.94
2022-11-28T22:21:50.600Z,101426.16
2022-11-28T22:24:09.715Z,101432.16
2022-11-28T22:26:36.710Z,101418.66
2022-11-28T22:29:06.957Z,101419.78
2022-11-28T22:31:33.566Z,101430.03
2022-11-28T22:34:00.555Z,101424.44
2022-11-28T22:36:27.394Z,101414.63
2022-11-28T22:38:55.911Z,101406.50
2022-11-28T22:41:28.226Z,101418.53
2022-11-28T22:43:57.173Z,101401.09
2022-11-28T22:46:23.949Z,101404.91
2022-11-28T22:48:52.997Z,101397.53
2022-11-28T22:51:22.710Z,101398.00
2022-11-28T22:53:56.345Z,101389.66
2022-11-28T22:56:23.452Z,101404.03
2022-11-28T22:58:50.439Z,101397.25
2022-11-28T23:01:37.475Z,101388.94
2022-11-28T23:04:04.523Z,101372.59
2022-11-28T23:06:33.906Z,101364.84
2022-11-28T23:09:05.504Z,101366.63
2022-11-28T23:11:35.283Z,101373.44
2022-11-28T23:14:03.041Z,101359.75
2022-11-28T23:16:34.391Z,101363.13
2022-11-28T23:19:03.753Z,101353.34
2022-11-28T23:21:34.189Z,101347.34
2022-11-28T23:24:01.513Z,101349.97
2022-11-28T23:26:30.768Z,101343.03
2022-11-28T23:29:00.713Z,101349.97
2022-11-28T23:31:30.011Z,101356.38
2022-11-28T23:33:58.099Z,101333.84
2022-11-28T23:36:26.485Z,101360.44
2022-11-28T23:38:56.219Z,101356.31
2022-11-28T23:41:23.875Z,101351.56
2022-11-28T23:43:50.681Z,101353.84
2022-11-28T23:46:18.655Z,101350.00
2022-11-28T23:48:46.148Z,101335.00
2022-11-28T23:51:18.352Z,101341.22
2022-11-28T23:53:45.412Z,101343.41
2022-11-28T23:56:16.017Z,101338.34
2022-11-28T23:58:43.074Z,101327.13
